Wilma — V2AB2 — position and weather

sailwx.info

Track history (hours):
 
Tides and Currents Weather Stations Pressure Air Temp Water Temp Dewpoint Dewpoint Depression Visibility Wind Speed Wind Dir Waves Ship Positions

Wilma

Last reported at 2014-Jul-15 19:28 UTC. Time now 2014-Jul-29 00:40 UTC.
Position N 36°57' E 026°13'.
Warning: this ship's position is 13 days out of date.

Length 152 m; draft 7.2 m.

Type: Ship (hazmat cat B). MMSI: 304080754.

Date/timePositionNaut miles runAvg speedWind from/ knotsBaromVisibWave heightAir tempDewpointWater temp
2014-Jul-15 19:28N 36°57' E 026°13'1618.1
2014-Jul-15 18:34N 37°12' E 026°03'1818.0
2014-Jul-15 17:33N 37°28' E 025°53'151 3.5
2014-Jul-13 22:31N 39°58' E 026°02'1414.7
2014-Jul-13 21:33N 39°48' E 025°49'6516.1
2014-Jul-13 17:33N 38°50' E 025°12'3816.3
2014-Jul-13 15:12N 38°16' E 024°49'2816.4
2014-Jul-13 13:30N 37°51' E 024°36'1616.4
2014-Jul-13 12:33N 37°36' E 024°28'1816.5
2014-Jul-13 11:28N 37°23' E 024°14'  
2014-Jul-09 17:28N 36°16' W 007°52'1618.1
2014-Jul-09 16:34N 36°20' W 008°12'3617.9
2014-Jul-09 14:33N 36°29' W 008°55'2017.9
2014-Jul-09 13:27N 36°34' W 009°18'1618.0
2014-Jul-09 12:33N 36°47' W 009°31'1818.0
2014-Jul-09 11:33N 37°04' W 009°39'1818.1
2014-Jul-09 10:32N 37°22' W 009°43'1817.9
2014-Jul-09 09:33N 37°39' W 009°47'  
2014-Jul-07 02:33N 50°30' W 000°05'1616.1
2014-Jul-07 01:33N 50°34' E 000°20'1716.6
2014-Jul-07 00:33N 50°41' E 000°43'2417.5
2014-Jul-06 23:12N 50°56' E 001°13'1117.3
2014-Jul-06 22:33N 51°03' E 001°25'1616.2
2014-Jul-06 21:33N 51°13' E 001°46'1615.7
2014-Jul-06 20:32N 51°28' E 001°56'8015.3
2014-Jul-06 15:17N 52°02' E 003°53'912.8
2014-Jul-06 14:33N 51°58' E 004°08'1210.8
2014-Jul-06 13:26N 51°54' E 004°26'1 1.1
2014-Jul-06 12:31N 51°54' E 004°27'0 0.0
2014-Jul-06 11:31N 51°54' E 004°27'0 0.0
2014-Jul-06 10:30N 51°54' E 004°27'0 0.0
2014-Jul-06 09:33N 51°54' E 004°27'0 0.0
2014-Jul-06 08:33N 51°54' E 004°27'0 0.0
2014-Jul-06 07:26N 51°54' E 004°27'0 0.0
2014-Jul-06 06:32N 51°54' E 004°27'0 0.0
2014-Jul-06 05:31N 51°54' E 004°27'0 0.0
2014-Jul-06 04:31N 51°54' E 004°27'0 0.0
2014-Jul-06 03:33N 51°54' E 004°27'0 0.0
2014-Jul-06 02:33N 51°54' E 004°27'0 0.0
2014-Jul-06 01:32N 51°54' E 004°27'0 0.0
2014-Jul-06 00:29N 51°54' E 004°27'0 0.0
2014-Jul-05 23:32N 51°54' E 004°27'0 0.0
2014-Jul-05 22:31N 51°54' E 004°27'0 0.0
2014-Jul-05 21:31N 51°54' E 004°27'0 0.0
2014-Jul-05 20:33N 51°54' E 004°27'0 0.0
2014-Jul-05 19:33N 51°54' E 004°27'  
Track history (hours):
 
Tides and Currents Weather Stations Pressure Air Temp Water Temp Dewpoint Dewpoint Depression Visibility Wind Speed Wind Dir Waves Ship Positions

Wilma

Last reported at 2014-Jul-15 19:28 UTC. Time now 2014-Jul-29 00:40 UTC.
Position N 36°57' E 026°13'.
Warning: this ship's position is 13 days out of date.

Length 152 m; draft 7.2 m.

Type: Ship (hazmat cat B). MMSI: 304080754.

Date/timePositionNaut miles runAvg speedWind from/ knotsBaromVisibWave heightAir tempDewpointWater temp
2014-Jul-15 19:28N 36°57' E 026°13'1618.1
2014-Jul-15 18:34N 37°12' E 026°03'1818.0
2014-Jul-15 17:33N 37°28' E 025°53'151 3.5
2014-Jul-13 22:31N 39°58' E 026°02'1414.7
2014-Jul-13 21:33N 39°48' E 025°49'6516.1
2014-Jul-13 17:33N 38°50' E 025°12'3816.3
2014-Jul-13 15:12N 38°16' E 024°49'2816.4
2014-Jul-13 13:30N 37°51' E 024°36'1616.4
2014-Jul-13 12:33N 37°36' E 024°28'1816.5
2014-Jul-13 11:28N 37°23' E 024°14'  
2014-Jul-09 17:28N 36°16' W 007°52'1618.1
2014-Jul-09 16:34N 36°20' W 008°12'3617.9
2014-Jul-09 14:33N 36°29' W 008°55'2017.9
2014-Jul-09 13:27N 36°34' W 009°18'1618.0
2014-Jul-09 12:33N 36°47' W 009°31'1818.0
2014-Jul-09 11:33N 37°04' W 009°39'1818.1
2014-Jul-09 10:32N 37°22' W 009°43'1817.9
2014-Jul-09 09:33N 37°39' W 009°47'  
2014-Jul-07 02:33N 50°30' W 000°05'1616.1
2014-Jul-07 01:33N 50°34' E 000°20'1716.6
2014-Jul-07 00:33N 50°41' E 000°43'2417.5
2014-Jul-06 23:12N 50°56' E 001°13'1117.3
2014-Jul-06 22:33N 51°03' E 001°25'1616.2
2014-Jul-06 21:33N 51°13' E 001°46'1615.7
2014-Jul-06 20:32N 51°28' E 001°56'8015.3
2014-Jul-06 15:17N 52°02' E 003°53'912.8
2014-Jul-06 14:33N 51°58' E 004°08'1210.8
2014-Jul-06 13:26N 51°54' E 004°26'1 1.1
2014-Jul-06 12:31N 51°54' E 004°27'0 0.0
2014-Jul-06 11:31N 51°54' E 004°27'0 0.0
2014-Jul-06 10:30N 51°54' E 004°27'0 0.0
2014-Jul-06 09:33N 51°54' E 004°27'0 0.0
2014-Jul-06 08:33N 51°54' E 004°27'0 0.0
2014-Jul-06 07:26N 51°54' E 004°27'0 0.0
2014-Jul-06 06:32N 51°54' E 004°27'0 0.0
2014-Jul-06 05:31N 51°54' E 004°27'0 0.0
2014-Jul-06 04:31N 51°54' E 004°27'0 0.0
2014-Jul-06 03:33N 51°54' E 004°27'0 0.0
2014-Jul-06 02:33N 51°54' E 004°27'0 0.0
2014-Jul-06 01:32N 51°54' E 004°27'0 0.0
2014-Jul-06 00:29N 51°54' E 004°27'0 0.0
2014-Jul-05 23:32N 51°54' E 004°27'0 0.0
2014-Jul-05 22:31N 51°54' E 004°27'0 0.0
2014-Jul-05 21:31N 51°54' E 004°27'0 0.0
2014-Jul-05 20:33N 51°54' E 004°27'0 0.0
2014-Jul-05 19:33N 51°54' E 004°27'  

Dump ship's entire track history